Terminal Aerodrome Forecast
Issued by NWS Louisville, KY

Home | Current Version | Previous Version | Text Only | Print | Product List | Glossary On
Versions: 1 2 3 4 5 6 7 8 9 10 11 12 13 14 15 16 17 18 19 20 21
000
FTUS43 KLMK 270433 AAA
TAFSDF
TAF AMD
KSDF 270433Z 2705/2806 19007KT P6SM FEW050 BKN100
     FM270600 22007KT P6SM BKN040
      TEMPO 2708/2711 BKN015
     FM271100 23007KT P6SM VCSH BKN015
     FM271700 24007KT P6SM VCSH SCT025 BKN035
     FM272000 24008KT P6SM VCTS SCT040CB BKN060=

USA.gov is the U.S. government's official web portal to all federal, state and local government web resources and services.